Time;durP1;ratioP1;P1;durP2;ratioP2;P2;SDS_P1;SDS_P2;PMS_P1;PMS_P2;Temp;Humidity;BMP_temperature;BMP_pressure;BME280_temperature;BME280_humidity;BME280_pressure;Samples;Min_cycle;Max_cycle;Signal;HPM_P1;HPM_P2
2023/12/01 00:00:43;;;;;;;50.30;31.70;;;0.80;99.90;;;;;;5091912;28;20200;-71
2023/12/01 00:03:10;;;;;;;49.80;30.47;;;0.80;99.90;;;;;;5091953;28;20201;-71
2023/12/01 00:05:37;;;;;;;54.00;31.87;;;0.80;99.90;;;;;;5092162;28;20192;-71
2023/12/01 00:08:05;;;;;;;56.17;31.97;;;0.80;99.90;;;;;;5092147;28;20196;-71
2023/12/01 00:10:32;;;;;;;51.73;30.60;;;0.80;99.90;;;;;;5092029;28;20672;-71
2023/12/01 00:12:58;;;;;;;56.23;34.40;;;0.80;99.90;;;;;;5092162;28;20196;-71
2023/12/01 00:15:25;;;;;;;54.93;32.97;;;0.70;99.90;;;;;;5091843;28;20319;-71
2023/12/01 00:17:52;;;;;;;52.23;31.87;;;0.80;99.90;;;;;;5092127;28;20246;-71
2023/12/01 00:20:18;;;;;;;51.87;32.07;;;0.80;99.90;;;;;;5092172;28;20251;-71
2023/12/01 00:22:45;;;;;;;55.13;32.87;;;0.80;99.90;;;;;;5092240;28;20203;-71
2023/12/01 00:25:13;;;;;;;53.70;30.60;;;0.80;99.90;;;;;;5095691;28;20253;-71
2023/12/01 00:27:41;;;;;;;50.93;31.53;;;0.80;99.90;;;;;;5095549;28;20196;-71
2023/12/01 00:30:08;;;;;;;52.33;31.60;;;0.80;99.90;;;;;;5095302;28;20683;-71
2023/12/01 00:32:35;;;;;;;52.80;33.07;;;0.80;99.90;;;;;;5095636;28;20236;-70
2023/12/01 00:35:01;;;;;;;53.40;32.00;;;0.80;99.90;;;;;;5095572;28;20196;-71
2023/12/01 00:37:28;;;;;;;55.37;34.17;;;0.80;99.90;;;;;;5095474;28;20253;-71
2023/12/01 00:39:54;;;;;;;52.33;31.27;;;0.80;99.90;;;;;;5095314;28;20720;-70
2023/12/01 00:42:22;;;;;;;58.83;33.00;;;0.80;99.90;;;;;;5095438;28;20196;-71
2023/12/01 00:44:50;;;;;;;52.20;30.97;;;0.80;99.90;;;;;;5095246;28;20192;-71
2023/12/01 00:47:16;;;;;;;53.10;30.77;;;0.80;99.90;;;;;;5095338;28;20219;-71
2023/12/01 00:49:43;;;;;;;47.70;29.30;;;0.80;99.90;;;;;;5095148;28;20224;-71
2023/12/01 00:52:09;;;;;;;51.23;31.67;;;0.80;99.90;;;;;;5095337;28;20197;-71
2023/12/01 00:54:36;;;;;;;51.37;31.60;;;0.80;99.90;;;;;;5095253;28;20196;-71
2023/12/01 00:57:03;;;;;;;52.27;31.67;;;0.80;99.90;;;;;;5095076;28;21034;-71
2023/12/01 00:59:31;;;;;;;53.50;32.07;;;0.80;99.90;;;;;;5095259;28;20200;-71
2023/12/01 01:01:57;;;;;;;53.23;30.60;;;0.80;99.90;;;;;;5095101;28;20192;-70
2023/12/01 01:04:24;;;;;;;53.73;31.00;;;0.80;99.90;;;;;;5095002;28;20196;-70
2023/12/01 01:06:51;;;;;;;48.47;30.43;;;0.80;99.90;;;;;;5094946;28;20742;-70
2023/12/01 01:09:17;;;;;;;53.33;30.23;;;0.90;99.90;;;;;;5094722;28;20204;-70
2023/12/01 01:11:44;;;;;;;53.90;31.17;;;0.80;99.90;;;;;;5094828;28;20250;-70
2023/12/01 01:14:11;;;;;;;52.97;30.87;;;0.80;99.90;;;;;;5094788;28;20725;-71
2023/12/01 01:16:38;;;;;;;52.07;30.77;;;0.80;99.90;;;;;;5094679;28;20232;-71
2023/12/01 01:19:05;;;;;;;51.77;30.53;;;0.80;99.90;;;;;;5094800;28;20208;-71
2023/12/01 01:21:32;;;;;;;53.47;31.07;;;0.80;99.90;;;;;;5094691;28;20241;-70
2023/12/01 01:23:59;;;;;;;47.90;30.87;;;0.80;99.90;;;;;;5094662;28;20279;-70
2023/12/01 01:26:25;;;;;;;55.10;32.90;;;0.90;99.90;;;;;;5094714;28;20250;-71
2023/12/01 01:28:52;;;;;;;57.80;31.67;;;0.90;99.90;;;;;;5094703;28;20204;-70
2023/12/01 01:31:19;;;;;;;52.80;29.47;;;0.90;99.90;;;;;;5094431;28;20285;-71
2023/12/01 01:33:46;;;;;;;55.23;31.67;;;0.80;99.90;;;;;;5094467;28;20262;-71
2023/12/01 01:36:13;;;;;;;53.97;31.33;;;0.90;99.90;;;;;;5094386;28;20565;-70
2023/12/01 01:38:40;;;;;;;49.80;30.80;;;0.90;99.90;;;;;;5094302;28;20192;-71
2023/12/01 01:41:07;;;;;;;54.87;31.10;;;0.80;99.90;;;;;;5094315;28;20220;-71
2023/12/01 01:43:33;;;;;;;56.23;31.67;;;0.80;99.90;;;;;;5094426;28;20204;-70
2023/12/01 01:46:05;;;;;;;55.73;31.37;;;0.80;99.90;;;;;;5094277;28;20675;-71
2023/12/01 01:48:32;;;;;;;55.63;30.70;;;0.70;99.90;;;;;;5094267;28;20198;-70
2023/12/01 01:51:00;;;;;;;53.23;30.97;;;0.80;99.90;;;;;;5094045;28;20227;-70
2023/12/01 01:53:28;;;;;;;54.10;31.03;;;0.80;99.90;;;;;;5093999;28;20265;-71
2023/12/01 01:55:57;;;;;;;54.33;31.30;;;0.80;99.90;;;;;;5094167;28;20199;-70
2023/12/01 01:58:24;;;;;;;54.53;29.40;;;0.80;99.90;;;;;;5094125;28;20245;-73
2023/12/01 02:00:51;;;;;;;53.67;30.80;;;0.80;99.90;;;;;;5093886;28;20261;-70
2023/12/01 02:03:18;;;;;;;58.07;30.53;;;0.80;99.90;;;;;;5093887;28;20196;-70
2023/12/01 02:05:47;;;;;;;60.33;31.87;;;0.70;99.90;;;;;;5093709;28;20295;-71
2023/12/01 02:08:26;;;;;;;57.70;31.60;;;0.80;99.90;;;;;;5094099;28;20196;-70
2023/12/01 02:10:53;;;;;;;60.80;32.53;;;0.80;99.90;;;;;;5093644;28;20729;-70
2023/12/01 02:13:21;;;;;;;52.50;29.43;;;0.80;99.90;;;;;;5093504;28;20192;-71
2023/12/01 02:15:48;;;;;;;56.13;30.83;;;0.70;99.90;;;;;;5093331;28;20573;-71
2023/12/01 02:18:22;;;;;;;53.13;30.17;;;0.80;99.90;;;;;;5093507;28;20231;-71
2023/12/01 02:20:49;;;;;;;54.73;30.90;;;0.80;99.90;;;;;;5093736;28;20200;-71
2023/12/01 02:23:17;;;;;;;53.10;29.53;;;0.70;99.90;;;;;;5093707;28;20196;-71
2023/12/01 02:25:44;;;;;;;56.83;31.30;;;0.70;99.90;;;;;;5093540;28;20226;-71
2023/12/01 02:28:11;;;;;;;60.50;32.47;;;0.70;99.90;;;;;;5093608;28;20246;-70
2023/12/01 02:30:37;;;;;;;54.37;31.27;;;0.70;99.90;;;;;;5093378;28;20265;-70
2023/12/01 02:33:04;;;;;;;60.40;32.27;;;0.80;99.90;;;;;;5093249;28;20226;-70
2023/12/01 02:35:31;;;;;;;58.20;32.50;;;0.80;99.90;;;;;;5093301;28;20200;-70
2023/12/01 02:37:58;;;;;;;58.43;30.87;;;0.70;99.90;;;;;;5093426;28;20208;-70
2023/12/01 02:40:27;;;;;;;57.23;32.17;;;0.70;99.90;;;;;;5093343;28;20208;-70
2023/12/01 02:42:54;;;;;;;64.07;32.77;;;0.80;99.90;;;;;;5095091;28;20203;-70
2023/12/01 02:45:22;;;;;;;59.60;32.60;;;0.70;99.90;;;;;;5094618;28;20243;-70
2023/12/01 02:47:49;;;;;;;64.63;34.17;;;0.70;99.90;;;;;;5092979;28;20662;-70
2023/12/01 02:50:16;;;;;;;65.37;32.67;;;0.70;99.90;;;;;;5092938;28;20812;-70
2023/12/01 02:52:43;;;;;;;66.37;32.37;;;0.70;99.90;;;;;;5093123;28;20200;-70
2023/12/01 02:55:11;;;;;;;68.47;34.83;;;0.70;99.90;;;;;;5093016;28;20496;-70
2023/12/01 02:57:40;;;;;;;67.17;34.30;;;0.70;99.90;;;;;;5092937;28;20207;-70
2023/12/01 03:00:13;;;;;;;62.53;33.27;;;0.70;99.90;;;;;;5092855;28;20200;-70
2023/12/01 03:02:40;;;;;;;60.93;33.20;;;0.60;99.90;;;;;;5093198;28;20594;-70
2023/12/01 03:05:07;;;;;;;69.07;34.67;;;0.70;99.90;;;;;;5092888;28;20658;-70
2023/12/01 03:07:34;;;;;;;67.83;34.97;;;0.70;99.90;;;;;;5092938;28;20268;-70
2023/12/01 03:10:01;;;;;;;65.57;34.17;;;0.70;99.90;;;;;;5092759;28;20244;-70
2023/12/01 03:12:27;;;;;;;69.47;34.47;;;0.70;99.90;;;;;;5092837;28;20200;-70
2023/12/01 03:14:55;;;;;;;64.17;35.40;;;0.80;99.90;;;;;;5092766;28;20196;-70
2023/12/01 03:17:23;;;;;;;67.00;34.67;;;0.70;99.90;;;;;;5092965;28;20196;-70
2023/12/01 03:19:50;;;;;;;66.33;33.20;;;0.70;99.90;;;;;;5092709;28;20695;-70
2023/12/01 03:22:17;;;;;;;63.67;34.70;;;0.70;99.90;;;;;;5092691;28;20208;-70
2023/12/01 03:24:44;;;;;;;57.57;32.07;;;0.70;99.90;;;;;;5092618;28;20192;-70
2023/12/01 03:27:11;;;;;;;60.87;32.83;;;0.70;99.90;;;;;;5092471;28;20250;-71
2023/12/01 03:29:39;;;;;;;62.57;33.17;;;0.70;99.90;;;;;;5092733;28;20258;-70
2023/12/01 03:32:07;;;;;;;64.47;32.63;;;0.70;99.90;;;;;;5092856;28;20269;-71
2023/12/01 03:34:34;;;;;;;64.73;33.43;;;0.70;99.90;;;;;;5092598;28;20201;-70
2023/12/01 03:37:02;;;;;;;61.27;33.30;;;0.70;99.90;;;;;;5092523;28;20541;-71
2023/12/01 03:39:28;;;;;;;65.20;33.47;;;0.70;99.90;;;;;;5092390;28;20196;-70
2023/12/01 03:41:56;;;;;;;65.63;34.07;;;0.70;99.90;;;;;;5092607;28;20207;-70
2023/12/01 03:44:22;;;;;;;66.13;33.83;;;0.70;99.90;;;;;;5092592;28;20329;-70
2023/12/01 03:46:49;;;;;;;78.87;34.97;;;0.70;99.90;;;;;;5092511;28;20196;-71
2023/12/01 03:49:17;;;;;;;71.30;34.13;;;0.70;99.90;;;;;;5092458;28;20197;-71
2023/12/01 03:51:44;;;;;;;66.93;32.53;;;0.70;99.90;;;;;;5092451;28;20220;-70
2023/12/01 03:54:10;;;;;;;73.27;35.43;;;0.70;99.90;;;;;;5092437;28;20204;-70
2023/12/01 03:56:37;;;;;;;80.97;36.50;;;0.70;99.90;;;;;;5092275;28;20721;-71
2023/12/01 03:59:09;;;;;;;72.43;36.13;;;0.70;99.90;;;;;;5095030;28;20192;-70
2023/12/01 04:01:36;;;;;;;78.13;35.20;;;0.70;99.90;;;;;;5096378;28;20259;-71
2023/12/01 04:04:04;;;;;;;81.47;37.67;;;0.70;99.90;;;;;;5096226;28;20200;-70
2023/12/01 04:06:33;;;;;;;71.60;35.03;;;0.70;99.90;;;;;;5096060;28;20220;-72
2023/12/01 04:09:05;;;;;;;73.83;35.03;;;0.70;99.90;;;;;;5096061;28;20739;-70
2023/12/01 04:11:32;;;;;;;78.93;37.73;;;0.70;99.90;;;;;;5096228;28;20591;-70
2023/12/01 04:13:58;;;;;;;72.40;35.93;;;0.70;99.90;;;;;;5096129;28;20203;-71
2023/12/01 04:16:26;;;;;;;72.03;35.27;;;0.60;99.90;;;;;;5095747;28;20224;-70
2023/12/01 04:18:52;;;;;;;74.40;38.37;;;0.60;99.90;;;;;;5095906;28;20291;-70
2023/12/01 04:21:19;;;;;;;83.90;38.83;;;0.60;99.90;;;;;;5095848;28;20205;-70
2023/12/01 04:23:47;;;;;;;87.97;38.83;;;0.70;99.90;;;;;;5095971;28;20250;-70
2023/12/01 04:26:13;;;;;;;81.07;37.23;;;0.70;99.90;;;;;;5095898;28;20200;-70
2023/12/01 04:28:40;;;;;;;78.70;38.23;;;0.70;99.90;;;;;;5095861;28;20247;-71
2023/12/01 04:31:07;;;;;;;78.73;37.53;;;0.70;99.90;;;;;;5095618;28;20238;-70
2023/12/01 04:33:34;;;;;;;78.57;37.27;;;0.70;99.90;;;;;;5095578;28;20565;-70
2023/12/01 04:36:06;;;;;;;82.03;37.87;;;0.70;99.90;;;;;;5095876;28;20215;-70
2023/12/01 04:38:33;;;;;;;73.20;35.43;;;0.70;99.90;;;;;;5095544;28;20563;-71
2023/12/01 04:41:01;;;;;;;70.23;35.17;;;0.60;99.90;;;;;;5095419;28;20204;-71
2023/12/01 04:43:28;;;;;;;80.67;36.57;;;0.60;99.90;;;;;;5095455;28;20709;-71
2023/12/01 04:45:54;;;;;;;72.43;36.20;;;0.60;99.90;;;;;;5095312;28;20204;-71
2023/12/01 04:48:21;;;;;;;77.57;35.77;;;0.60;99.90;;;;;;5095374;28;20197;-72
2023/12/01 04:50:49;;;;;;;73.93;35.57;;;0.60;99.90;;;;;;5095439;28;20235;-72
2023/12/01 04:53:16;;;;;;;71.93;35.40;;;0.50;99.90;;;;;;5095164;28;20655;-72
2023/12/01 04:55:42;;;;;;;74.83;36.93;;;0.60;99.90;;;;;;5095205;28;20192;-72
2023/12/01 04:58:10;;;;;;;67.47;34.90;;;0.50;99.90;;;;;;5095168;28;20321;-73
2023/12/01 05:00:37;;;;;;;65.10;36.30;;;0.50;99.90;;;;;;5095106;28;20245;-73
2023/12/01 05:03:06;;;;;;;73.97;35.30;;;0.50;99.90;;;;;;5094910;28;20196;-73
2023/12/01 05:05:34;;;;;;;64.83;33.23;;;0.50;99.90;;;;;;5095165;28;20204;-73
2023/12/01 05:08:04;;;;;;;67.23;34.30;;;0.50;99.90;;;;;;5094922;28;20197;-73
2023/12/01 05:10:32;;;;;;;68.77;33.83;;;0.50;99.90;;;;;;5094526;28;20280;-74
2023/12/01 05:13:00;;;;;;;70.00;35.43;;;0.50;99.90;;;;;;5094692;28;20196;-73
2023/12/01 05:15:30;;;;;;;63.70;34.40;;;0.50;99.90;;;;;;5094496;28;20228;-73
2023/12/01 05:17:58;;;;;;;64.90;33.10;;;0.50;99.90;;;;;;5094967;28;20199;-73
2023/12/01 05:20:27;;;;;;;67.03;34.13;;;0.50;99.90;;;;;;5094853;28;20208;-73
2023/12/01 05:22:55;;;;;;;61.00;32.03;;;0.50;99.90;;;;;;5094782;28;20271;-73
2023/12/01 05:25:25;;;;;;;65.50;33.23;;;0.50;99.90;;;;;;5094653;28;20204;-74
2023/12/01 05:27:54;;;;;;;60.07;33.57;;;0.50;99.90;;;;;;5094569;28;20208;-74
2023/12/01 05:30:22;;;;;;;60.10;33.33;;;0.50;99.90;;;;;;5094809;28;20200;-74
2023/12/01 05:32:51;;;;;;;65.70;33.70;;;0.50;99.90;;;;;;5094531;28;20668;-74
2023/12/01 05:35:19;;;;;;;64.97;34.30;;;0.50;99.90;;;;;;5094552;28;20291;-74
2023/12/01 05:37:48;;;;;;;62.77;33.10;;;0.50;99.90;;;;;;5094557;28;20204;-74
2023/12/01 05:40:16;;;;;;;66.80;34.17;;;0.50;99.90;;;;;;5094382;28;20332;-75
2023/12/01 05:42:44;;;;;;;63.97;32.97;;;0.50;99.90;;;;;;5094329;28;20311;-75
2023/12/01 05:45:12;;;;;;;67.03;33.93;;;0.50;99.90;;;;;;5094620;28;20193;-75
2023/12/01 05:47:43;;;;;;;68.27;34.33;;;0.50;99.90;;;;;;5094314;28;20213;-75
2023/12/01 05:50:14;;;;;;;61.10;32.53;;;0.40;99.90;;;;;;5094037;28;20196;-75
2023/12/01 05:52:42;;;;;;;70.83;33.90;;;0.40;99.90;;;;;;5094199;28;20224;-75
2023/12/01 05:55:14;;;;;;;64.67;33.50;;;0.40;99.90;;;;;;5094015;28;20201;-76
2023/12/01 05:57:42;;;;;;;67.53;34.83;;;0.40;99.90;;;;;;5094029;28;20800;-76
2023/12/01 06:00:12;;;;;;;65.80;33.23;;;0.50;99.90;;;;;;5093882;28;20719;-76
2023/12/01 06:02:40;;;;;;;63.30;34.57;;;0.40;99.90;;;;;;5093966;28;20682;-76
2023/12/01 06:05:07;;;;;;;66.60;35.10;;;0.40;99.90;;;;;;5093979;28;20204;-76
2023/12/01 06:07:36;;;;;;;69.97;35.27;;;0.40;99.90;;;;;;5093670;28;20283;-75
2023/12/01 06:10:03;;;;;;;65.77;34.77;;;0.40;99.90;;;;;;5093822;28;20196;-76
2023/12/01 06:12:30;;;;;;;66.77;36.07;;;0.40;99.90;;;;;;5093595;28;20224;-76
2023/12/01 06:14:57;;;;;;;69.20;35.83;;;0.40;99.90;;;;;;5093413;28;20241;-76
2023/12/01 06:17:23;;;;;;;68.50;33.80;;;0.40;99.90;;;;;;5093377;28;20196;-76
2023/12/01 06:19:50;;;;;;;65.37;34.13;;;0.40;99.90;;;;;;5093487;28;20599;-76
2023/12/01 06:22:17;;;;;;;67.00;33.47;;;0.40;99.90;;;;;;5092716;28;20197;-76
2023/12/01 06:24:44;;;;;;;74.93;36.23;;;0.40;99.90;;;;;;5093548;28;20197;-76
2023/12/01 06:27:11;;;;;;;70.77;34.67;;;0.40;99.90;;;;;;5093244;28;20204;-76
2023/12/01 06:29:38;;;;;;;67.23;32.87;;;0.40;99.90;;;;;;5093410;28;20292;-76
2023/12/01 06:32:05;;;;;;;69.00;33.50;;;0.40;99.90;;;;;;5093104;28;20285;-76
2023/12/01 06:34:32;;;;;;;73.97;35.10;;;0.40;99.90;;;;;;5093153;28;20200;-75
2023/12/01 06:36:59;;;;;;;64.57;34.13;;;0.40;99.90;;;;;;5093332;28;20336;-76
2023/12/01 06:39:26;;;;;;;71.50;35.23;;;0.40;99.90;;;;;;5093342;28;20290;-75
2023/12/01 06:41:54;;;;;;;71.37;35.03;;;0.40;99.90;;;;;;5092998;28;20212;-75
2023/12/01 06:44:22;;;;;;;70.50;36.27;;;0.40;99.90;;;;;;5092992;28;20246;-75
2023/12/01 06:46:49;;;;;;;72.97;36.63;;;0.40;99.90;;;;;;5093003;28;20196;-75
2023/12/01 06:49:15;;;;;;;64.40;34.90;;;0.40;99.90;;;;;;5092919;28;20245;-75
2023/12/01 06:51:42;;;;;;;83.00;37.37;;;0.40;99.90;;;;;;5092934;28;20303;-74
2023/12/01 06:54:09;;;;;;;71.57;34.70;;;0.50;99.90;;;;;;5092913;28;20199;-74
2023/12/01 06:56:36;;;;;;;72.77;35.30;;;0.50;99.90;;;;;;5092953;28;20226;-75
2023/12/01 06:59:04;;;;;;;71.23;36.20;;;0.50;99.90;;;;;;5093014;28;20197;-75
2023/12/01 07:01:31;;;;;;;74.33;35.83;;;0.50;99.90;;;;;;5092854;28;20659;-77
2023/12/01 07:03:58;;;;;;;69.37;35.90;;;0.50;99.90;;;;;;5093021;28;20315;-76
2023/12/01 07:06:24;;;;;;;72.70;36.53;;;0.40;99.90;;;;;;5093089;28;20203;-75
2023/12/01 07:08:51;;;;;;;71.70;35.87;;;0.50;99.90;;;;;;5092395;28;20196;-75
2023/12/01 07:11:17;;;;;;;76.63;36.63;;;0.50;99.90;;;;;;5092754;28;20216;-75
2023/12/01 07:13:47;;;;;;;73.17;36.50;;;0.50;99.90;;;;;;5092898;28;20208;-75
2023/12/01 07:16:15;;;;;;;79.97;36.83;;;0.50;99.90;;;;;;5092421;28;20228;-75
2023/12/01 07:18:43;;;;;;;69.83;36.07;;;0.50;99.90;;;;;;5092856;28;20224;-75
2023/12/01 07:21:10;;;;;;;71.73;36.27;;;0.50;99.90;;;;;;5092311;28;20709;-75
2023/12/01 07:23:40;;;;;;;73.87;35.03;;;0.60;99.90;;;;;;5092686;28;20207;-76
2023/12/01 07:26:07;;;;;;;68.07;36.27;;;0.60;99.90;;;;;;5092579;28;20204;-75
2023/12/01 07:28:35;;;;;;;71.33;34.97;;;0.60;99.90;;;;;;5092513;28;20205;-73
2023/12/01 07:31:02;;;;;;;70.97;36.00;;;0.60;99.90;;;;;;5092396;28;20196;-76
2023/12/01 07:33:29;;;;;;;68.87;36.13;;;0.60;99.90;;;;;;5095913;28;20196;-72
2023/12/01 07:35:57;;;;;;;67.40;35.20;;;0.60;99.90;;;;;;5096651;28;20233;-76
2023/12/01 07:38:24;;;;;;;69.70;35.47;;;0.60;99.90;;;;;;5096780;28;20308;-75
2023/12/01 07:40:50;;;;;;;72.83;35.97;;;0.60;99.90;;;;;;5096528;28;20230;-74
2023/12/01 07:43:19;;;;;;;64.07;34.57;;;0.60;99.90;;;;;;5096416;28;20199;-75
2023/12/01 07:45:46;;;;;;;64.10;34.37;;;0.60;99.90;;;;;;5096487;28;20227;-75
2023/12/01 07:48:13;;;;;;;65.73;34.50;;;0.70;99.90;;;;;;5092665;28;20741;-75
2023/12/01 07:50:41;;;;;;;67.07;36.83;;;0.70;99.90;;;;;;5076193;28;20656;-74
2023/12/01 07:53:08;;;;;;;58.57;32.53;;;0.70;99.90;;;;;;5076084;28;20228;-78
2023/12/01 07:55:35;;;;;;;58.43;32.30;;;0.70;99.90;;;;;;5075955;28;20200;-72
2023/12/01 07:58:01;;;;;;;60.43;32.50;;;0.70;99.90;;;;;;5075829;28;20200;-74
2023/12/01 08:00:28;;;;;;;57.80;33.17;;;0.80;99.90;;;;;;5076035;28;20201;-73
2023/12/01 08:02:55;;;;;;;58.63;33.53;;;0.80;99.90;;;;;;5075985;28;20201;-73
2023/12/01 08:05:22;;;;;;;52.70;30.07;;;0.70;99.90;;;;;;5075922;28;20251;-73
2023/12/01 08:07:52;;;;;;;52.37;31.37;;;0.70;99.90;;;;;;5075578;28;20197;-73
2023/12/01 08:10:19;;;;;;;50.27;31.13;;;0.70;99.90;;;;;;5075712;28;20292;-74
2023/12/01 08:12:47;;;;;;;53.67;30.90;;;0.70;99.90;;;;;;5075337;28;20224;-73
2023/12/01 08:15:14;;;;;;;52.77;30.83;;;0.70;99.90;;;;;;5075629;28;20337;-73
2023/12/01 08:17:42;;;;;;;56.93;32.03;;;0.70;99.90;;;;;;5075642;28;20251;-73
2023/12/01 08:20:10;;;;;;;51.30;30.53;;;0.70;99.90;;;;;;5075592;28;20193;-73
2023/12/01 08:22:37;;;;;;;52.27;30.67;;;0.80;99.90;;;;;;5075137;28;20201;-72
2023/12/01 08:25:07;;;;;;;53.37;32.60;;;0.80;99.90;;;;;;5075410;28;20197;-73
2023/12/01 08:27:34;;;;;;;49.57;29.60;;;0.80;99.90;;;;;;5075815;28;20204;-73
2023/12/01 08:30:02;;;;;;;48.30;28.23;;;0.80;99.90;;;;;;5075368;28;20251;-72
2023/12/01 08:32:29;;;;;;;51.63;31.00;;;0.80;99.90;;;;;;5075392;28;20225;-73
2023/12/01 08:34:55;;;;;;;47.10;28.77;;;0.90;99.90;;;;;;5075295;28;20197;-73
2023/12/01 08:37:22;;;;;;;45.60;27.67;;;0.90;99.90;;;;;;5075094;28;20597;-73
2023/12/01 08:39:49;;;;;;;42.00;26.70;;;1.00;99.90;;;;;;5074982;28;20197;-72
2023/12/01 08:42:18;;;;;;;42.07;27.70;;;1.10;99.90;;;;;;5075178;28;20232;-73
2023/12/01 08:44:44;;;;;;;41.93;28.20;;;1.10;99.90;;;;;;5074368;28;20233;-73
2023/12/01 08:47:13;;;;;;;43.47;28.07;;;1.20;99.90;;;;;;5075169;28;20200;-73
2023/12/01 08:49:40;;;;;;;41.47;27.30;;;1.30;99.90;;;;;;5074967;28;20338;-74
2023/12/01 08:52:07;;;;;;;46.83;28.90;;;1.40;99.90;;;;;;5074858;28;20213;-74
2023/12/01 08:54:34;;;;;;;43.37;27.23;;;1.40;99.90;;;;;;5074967;28;20197;-75
2023/12/01 08:57:01;;;;;;;41.20;26.13;;;1.40;99.90;;;;;;5074548;28;20246;-74
2023/12/01 08:59:28;;;;;;;39.53;26.77;;;1.40;99.90;;;;;;5075041;28;20278;-73
2023/12/01 09:01:55;;;;;;;41.60;26.63;;;1.50;99.90;;;;;;5074766;28;20649;-75
2023/12/01 09:04:22;;;;;;;41.20;26.47;;;1.50;99.90;;;;;;5074814;28;20277;-74
2023/12/01 09:06:48;;;;;;;36.90;25.17;;;1.60;99.90;;;;;;5074762;28;20201;-75
2023/12/01 09:09:15;;;;;;;37.53;24.47;;;1.60;99.90;;;;;;5075173;28;20197;-78
2023/12/01 09:11:42;;;;;;;41.80;26.57;;;1.60;99.90;;;;;;5074765;28;20197;-77
2023/12/01 09:14:08;;;;;;;39.27;26.77;;;1.60;99.90;;;;;;5074880;28;20259;-76
2023/12/01 09:16:36;;;;;;;38.17;26.80;;;1.70;99.90;;;;;;5079370;28;20307;-74
2023/12/01 09:19:03;;;;;;;36.10;24.10;;;1.70;99.90;;;;;;5093468;28;20189;-73
2023/12/01 09:21:30;;;;;;;38.80;26.30;;;1.80;99.90;;;;;;5094808;28;20266;-78
2023/12/01 09:23:56;;;;;;;32.40;23.53;;;1.80;99.90;;;;;;5094949;28;20586;-78
2023/12/01 09:26:23;;;;;;;36.20;24.77;;;1.80;99.90;;;;;;5094689;28;20200;-78
2023/12/01 09:28:51;;;;;;;31.90;23.53;;;1.90;99.90;;;;;;5094792;28;20220;-78
2023/12/01 09:31:18;;;;;;;30.30;21.70;;;2.00;99.90;;;;;;5094693;28;20304;-78
2023/12/01 09:33:47;;;;;;;31.63;21.93;;;2.10;99.90;;;;;;5094327;28;20232;-81
2023/12/01 09:36:17;;;;;;;27.30;20.20;;;2.10;99.90;;;;;;5094811;28;20195;-79
2023/12/01 09:38:43;;;;;;;27.27;20.97;;;2.20;99.90;;;;;;5094183;28;20678;-78
2023/12/01 09:41:10;;;;;;;28.93;21.30;;;2.20;99.90;;;;;;5094281;28;20227;-78
2023/12/01 09:43:38;;;;;;;27.00;20.07;;;2.20;99.90;;;;;;5096051;28;20198;-78
2023/12/01 09:46:05;;;;;;;26.83;20.33;;;2.20;99.90;;;;;;5096585;28;20258;-78
2023/12/01 09:48:35;;;;;;;27.20;20.53;;;2.00;99.90;;;;;;5095598;28;20195;-79
2023/12/01 09:51:04;;;;;;;28.70;19.77;;;2.10;99.90;;;;;;5096141;28;20203;-78
2023/12/01 09:53:30;;;;;;;27.00;20.13;;;2.10;99.90;;;;;;5097133;28;20323;-79
2023/12/01 09:55:57;;;;;;;26.53;20.53;;;2.10;99.90;;;;;;5093468;28;20209;-78
2023/12/01 09:58:27;;;;;;;28.30;20.67;;;2.00;99.90;;;;;;5095106;28;20368;-78
2023/12/01 10:00:56;;;;;;;32.10;22.00;;;2.00;99.90;;;;;;5094742;28;20220;-78
2023/12/01 10:03:22;;;;;;;42.17;25.47;;;2.00;99.90;;;;;;5094411;28;20252;-77
2023/12/01 10:05:50;;;;;;;34.10;23.47;;;2.00;99.90;;;;;;5094426;28;20242;-77
2023/12/01 10:08:18;;;;;;;31.50;22.23;;;2.10;99.90;;;;;;5094497;28;20201;-78
2023/12/01 10:10:45;;;;;;;30.80;22.43;;;2.20;99.90;;;;;;5094990;28;20205;-74
2023/12/01 10:13:12;;;;;;;30.23;22.30;;;2.20;99.90;;;;;;5093621;28;20666;-77
2023/12/01 10:15:39;;;;;;;27.13;20.43;;;2.30;99.90;;;;;;5093349;28;20645;-77
2023/12/01 10:18:11;;;;;;;26.63;20.17;;;2.40;99.90;;;;;;5093844;28;20196;-78
2023/12/01 10:20:39;;;;;;;24.67;20.03;;;2.30;99.90;;;;;;5079412;28;20205;-77
2023/12/01 10:23:19;;;;;;;26.90;21.33;;;2.20;99.90;;;;;;5073375;28;20201;-77
2023/12/01 10:25:49;;;;;;;24.77;18.80;;;2.10;99.90;;;;;;5073451;28;20225;-77
2023/12/01 10:28:16;;;;;;;28.73;20.67;;;2.00;99.90;;;;;;5073643;28;20208;-77
2023/12/01 10:30:53;;;;;;;25.53;19.50;;;1.90;99.90;;;;;;5073503;28;20233;-77
2023/12/01 10:33:20;;;;;;;25.30;19.23;;;1.80;99.90;;;;;;5073326;28;20228;-78
2023/12/01 10:36:01;;;;;;;24.77;19.47;;;1.80;99.90;;;;;;5073411;28;20199;-76
2023/12/01 10:38:29;;;;;;;26.20;19.80;;;1.80;99.90;;;;;;5074845;28;20203;-77
2023/12/01 10:40:57;;;;;;;23.10;18.17;;;1.80;99.90;;;;;;5093423;28;20228;-76
2023/12/01 10:43:24;;;;;;;24.20;18.27;;;1.80;99.90;;;;;;5093488;28;20603;-76
2023/12/01 10:45:51;;;;;;;24.30;17.93;;;1.80;99.90;;;;;;5093396;28;20248;-76
2023/12/01 10:48:19;;;;;;;22.87;17.03;;;1.80;99.90;;;;;;5092990;28;20200;-76
2023/12/01 10:50:47;;;;;;;22.93;17.67;;;1.90;99.90;;;;;;5093115;28;20284;-76
2023/12/01 10:53:15;;;;;;;22.60;17.57;;;1.80;99.90;;;;;;5092971;28;20586;-76
2023/12/01 10:55:46;;;;;;;24.00;18.07;;;1.80;99.90;;;;;;5093160;28;20201;-76
2023/12/01 10:58:20;;;;;;;24.63;18.57;;;1.80;99.90;;;;;;5093022;28;20226;-76
2023/12/01 11:00:48;;;;;;;24.47;18.43;;;1.80;99.90;;;;;;5093263;28;20634;-77
2023/12/01 11:03:19;;;;;;;24.73;19.03;;;1.90;99.90;;;;;;5093164;28;20202;-76
2023/12/01 11:05:49;;;;;;;25.43;19.30;;;1.90;99.90;;;;;;5093036;28;20569;-76
2023/12/01 11:08:27;;;;;;;26.40;18.83;;;1.90;99.90;;;;;;5092824;28;20214;-77
2023/12/01 11:11:07;;;;;;;24.33;17.47;;;1.90;99.90;;;;;;5092893;28;20710;-76
2023/12/01 11:13:44;;;;;;;22.77;17.20;;;1.90;99.90;;;;;;5092837;28;20266;-77
2023/12/01 11:16:13;;;;;;;24.53;17.87;;;1.80;99.90;;;;;;5092677;28;20232;-77
2023/12/01 11:18:43;;;;;;;22.33;17.43;;;1.90;99.90;;;;;;5088877;28;20203;-78
2023/12/01 11:21:10;;;;;;;22.90;17.37;;;1.80;99.90;;;;;;5092165;28;20188;-76
2023/12/01 11:23:36;;;;;;;23.83;17.03;;;1.80;99.90;;;;;;5092612;28;20195;-77
2023/12/01 11:26:08;;;;;;;22.47;17.37;;;1.90;99.90;;;;;;5092847;28;20611;-77
2023/12/01 11:28:46;;;;;;;20.40;16.17;;;2.00;99.90;;;;;;5092914;28;20192;-79
2023/12/01 11:31:19;;;;;;;22.90;16.83;;;2.00;99.90;;;;;;5092945;28;20198;-76
2023/12/01 11:33:47;;;;;;;20.73;16.10;;;2.00;99.90;;;;;;5092450;28;20235;-77
2023/12/01 11:36:36;;;;;;;20.43;15.70;;;1.90;99.90;;;;;;5092469;28;20199;-77
2023/12/01 11:39:17;;;;;;;21.03;16.47;;;1.80;99.90;;;;;;5086213;28;20219;-77
2023/12/01 11:41:56;;;;;;;20.93;15.90;;;1.70;99.90;;;;;;5092731;28;20291;-78
2023/12/01 11:44:24;;;;;;;19.73;15.47;;;1.80;99.90;;;;;;5096897;28;20279;-77
2023/12/01 11:46:56;;;;;;;19.57;15.70;;;1.70;99.90;;;;;;5092259;28;20228;-77
2023/12/01 11:49:25;;;;;;;21.10;15.60;;;1.70;99.90;;;;;;5092218;28;20200;-77
2023/12/01 11:51:52;;;;;;;19.97;15.77;;;1.70;99.90;;;;;;5092314;28;20196;-76
2023/12/01 11:54:19;;;;;;;21.80;16.53;;;1.80;99.90;;;;;;5092023;28;20529;-75
2023/12/01 11:56:51;;;;;;;21.87;16.23;;;1.70;99.90;;;;;;5092033;28;20215;-76
2023/12/01 11:59:19;;;;;;;23.27;17.03;;;1.60;99.90;;;;;;5092475;28;20204;-76
2023/12/01 12:01:46;;;;;;;24.83;17.67;;;1.60;99.90;;;;;;5092249;28;20200;-76
2023/12/01 12:04:16;;;;;;;23.23;17.03;;;1.60;99.90;;;;;;5092136;28;20254;-75
2023/12/01 12:06:43;;;;;;;22.17;16.47;;;1.50;99.90;;;;;;5091655;28;20535;-76
2023/12/01 12:09:10;;;;;;;23.57;17.20;;;1.50;99.90;;;;;;5092063;28;20246;-76
2023/12/01 12:11:39;;;;;;;21.20;15.97;;;1.40;99.90;;;;;;5092061;28;20193;-76
2023/12/01 12:14:07;;;;;;;23.27;16.23;;;1.30;99.90;;;;;;5091832;28;20220;-76
2023/12/01 12:16:35;;;;;;;27.00;18.17;;;1.30;99.90;;;;;;5091914;28;20220;-76
2023/12/01 12:19:02;;;;;;;24.33;17.13;;;1.20;99.90;;;;;;5093133;28;20207;-76
2023/12/01 12:21:30;;;;;;;26.87;18.80;;;1.20;99.90;;;;;;5095303;28;20203;-77
2023/12/01 12:23:57;;;;;;;29.07;19.60;;;1.20;99.90;;;;;;5095965;28;20200;-76
2023/12/01 12:26:25;;;;;;;26.43;18.83;;;1.20;99.90;;;;;;5095654;28;20528;-76
2023/12/01 12:28:54;;;;;;;25.00;18.03;;;1.20;99.90;;;;;;5095601;28;20193;-76
2023/12/01 12:31:25;;;;;;;29.07;20.30;;;1.20;99.90;;;;;;5095607;28;20204;-77
2023/12/01 12:33:52;;;;;;;31.93;22.00;;;1.30;99.90;;;;;;5095813;28;20258;-75
2023/12/01 12:36:20;;;;;;;30.37;20.70;;;1.30;99.90;;;;;;5095859;28;20204;-75
2023/12/01 12:38:48;;;;;;;27.23;19.27;;;1.30;99.90;;;;;;5095856;28;20287;-74